Time;durP1;ratioP1;P1;durP2;ratioP2;P2;SDS_P1;SDS_P2;PMS_P1;PMS_P2;Temp;Humidity;BMP_temperature;BMP_pressure;BME280_temperature;BME280_humidity;BME280_pressure;Samples;Min_cycle;Max_cycle;Signal;HPM_P1;HPM_P2
2022/11/22 07:23:21;;;;;;;;;1.00;1.00;;;;;9.41;69.39;99343.88;2833969;22;45952;-88
2022/11/22 07:24:32;;;;;;;;;4.25;1.00;;;;;9.41;69.82;99342.09;2372442;28;45332;-88
2022/11/22 07:25:46;;;;;;;;;3.00;1.00;;;;;9.43;69.86;99345.50;2377938;28;45626;-89
2022/11/22 07:26:57;;;;;;;;;2.00;2.00;;;;;9.43;69.44;99336.78;2376879;28;45367;-87
2022/11/22 07:28:07;;;;;;;;;1.00;1.00;;;;;9.43;69.51;99347.28;2375316;28;47173;-87
2022/11/22 07:29:17;;;;;;;;;4.00;0.00;;;;;9.44;69.61;99352.44;2383395;28;45469;-87
2022/11/22 07:30:28;;;;;;;;;2.75;1.75;;;;;9.45;69.70;99351.53;2382227;28;47099;-87
2022/11/22 07:31:38;;;;;;;;;0.50;0.50;;;;;9.45;69.82;99351.53;2373980;28;45442;-87
2022/11/22 07:32:48;;;;;;;;;0.25;0.25;;;;;9.48;69.69;99360.16;2379708;28;46460;-87
2022/11/22 07:33:59;;;;;;;;;1.75;0.00;;;;;9.47;69.63;99364.56;2381818;28;45395;-87
2022/11/22 07:35:10;;;;;;;;;0.75;0.50;;;;;9.49;69.91;99356.59;2379797;28;48003;-87
2022/11/22 07:36:21;;;;;;;;;2.25;1.00;;;;;9.51;69.43;99368.72;2381592;28;45264;-84
2022/11/22 07:37:31;;;;;;;;;2.00;0.50;;;;;9.52;69.33;99362.56;2379887;28;47310;-84
2022/11/22 07:38:42;;;;;;;;;1.50;1.00;;;;;9.52;69.09;99372.19;2381639;28;44837;-84
2022/11/22 07:39:53;;;;;;;;;2.00;0.75;;;;;9.51;68.95;99367.84;2381759;28;45495;-84
2022/11/22 07:41:04;;;;;;;;;1.50;0.75;;;;;9.50;69.35;99380.16;2380640;28;45382;-85
2022/11/22 07:42:15;;;;;;;;;3.00;1.00;;;;;9.49;69.14;99390.69;2382775;28;45375;-84
2022/11/22 07:43:25;;;;;;;;;1.00;1.00;;;;;9.50;69.68;99388.00;2376118;28;45274;-85
2022/11/22 07:44:35;;;;;;;;;2.75;1.00;;;;;9.51;69.59;99381.81;2384617;28;45774;-85
2022/11/22 07:45:46;;;;;;;;;3.00;1.00;;;;;9.49;69.18;99373.19;2384806;28;44738;-84
2022/11/22 07:46:56;;;;;;;;;1.50;0.00;;;;;9.49;69.31;99383.69;2384565;28;45417;-84
2022/11/22 07:48:06;;;;;;;;;3.25;1.00;;;;;9.49;69.44;99380.19;2378728;28;45187;-85
2022/11/22 07:49:17;;;;;;;;;1.00;1.00;;;;;9.50;69.41;99382.75;2381249;28;47877;-84
2022/11/22 07:50:27;;;;;;;;;1.25;0.00;;;;;9.49;69.05;99382.81;2383559;28;45409;-84
2022/11/22 07:51:38;;;;;;;;;1.25;0.00;;;;;9.47;68.88;99382.91;2376303;28;46254;-84
2022/11/22 07:52:56;;;;;;;;;1.25;0.25;;;;;9.48;69.39;99374.13;2384870;28;45419;-84
2022/11/22 07:54:10;;;;;;;;;1.50;0.00;;;;;9.51;69.84;99380.97;2379455;28;45475;-84
2022/11/22 07:55:21;;;;;;;;;1.00;0.00;;;;;9.52;70.04;99377.44;2377735;28;45916;-84
2022/11/22 07:56:33;;;;;;;;;2.00;0.75;;;;;9.52;69.50;99382.69;2377125;28;46047;-84
2022/11/22 07:57:43;;;;;;;;;0.50;0.50;;;;;9.51;68.63;99370.47;2376206;28;45674;-85
2022/11/22 07:58:53;;;;;;;;;0.00;0.00;;;;;9.51;69.28;99376.56;2379673;28;46306;-84
2022/11/22 08:00:04;;;;;;;;;0.00;0.00;;;;;9.50;68.90;99379.28;2381356;28;44816;-85
2022/11/22 08:01:17;;;;;;;;;0.50;0.00;;;;;9.48;69.09;99378.53;2374186;28;46571;-84
2022/11/22 08:02:27;;;;;;;;;4.00;0.00;;;;;9.48;69.34;99387.25;2381101;28;44700;-85
2022/11/22 08:03:38;;;;;;;;;1.00;0.00;;;;;9.48;69.81;99379.38;2377127;28;45609;-84
2022/11/22 08:04:48;;;;;;;;;1.00;0.00;;;;;9.49;69.97;99381.06;2375346;28;45358;-84
2022/11/22 08:06:00;;;;;;;;;1.00;0.00;;;;;9.50;69.79;99372.28;2381794;28;45607;-84
2022/11/22 08:07:10;;;;;;;;;3.50;0.50;;;;;9.51;69.74;99383.59;2383568;28;45315;-84
2022/11/22 08:08:20;;;;;;;;;0.00;0.00;;;;;9.53;70.01;99381.75;2383601;28;45582;-83
2022/11/22 08:09:31;;;;;;;;;0.00;0.00;;;;;9.53;68.88;99385.22;2375185;28;44614;-83
2022/11/22 08:10:43;;;;;;;;;0.00;0.00;;;;;9.53;69.92;99387.84;2380245;28;46225;-83
2022/11/22 08:11:53;;;;;;;;;0.25;0.00;;;;;9.54;69.60;99389.53;2383231;28;44724;-84
2022/11/22 08:13:04;;;;;;;;;4.00;0.00;;;;;9.54;69.70;99386.06;2386935;28;45439;-84
2022/11/22 08:14:15;;;;;;;;;0.00;0.00;;;;;9.54;70.05;99386.06;2375137;28;45487;-83
2022/11/22 08:15:25;;;;;;;;;0.00;0.00;;;;;9.54;70.00;99386.91;2381114;28;46380;-84
2022/11/22 08:16:36;;;;;;;;;0.00;0.00;;;;;9.54;69.97;99393.94;2375161;28;45280;-83
2022/11/22 08:17:46;;;;;;;;;0.25;0.25;;;;;9.54;70.34;99384.31;2380168;28;46264;-83
2022/11/22 08:18:56;;;;;;;;;0.50;0.25;;;;;9.56;70.23;99387.69;2375682;28;45483;-83
2022/11/22 08:20:10;;;;;;;;;0.75;0.00;;;;;9.60;70.40;99391.03;2374822;28;45373;-83
2022/11/22 08:21:20;;;;;;;;;0.75;0.00;;;;;9.60;70.24;99385.78;2375210;28;45417;-83
2022/11/22 08:22:31;;;;;;;;;1.00;1.00;;;;;9.63;70.40;99382.97;2375000;28;45519;-84
2022/11/22 08:23:43;;;;;;;;;3.50;1.00;;;;;9.63;70.20;99385.59;2381648;28;44756;-83
2022/11/22 08:24:53;;;;;;;;;1.25;1.00;;;;;9.65;70.12;99383.78;2383274;28;45344;-83
2022/11/22 08:26:05;;;;;;;;;4.50;0.00;;;;;9.68;69.99;99382.72;2375200;28;45226;-83
2022/11/22 08:27:16;;;;;;;;;1.50;1.00;;;;;9.68;70.33;99394.09;2381861;28;46925;-83
2022/11/22 08:28:26;;;;;;;;;0.00;0.00;;;;;9.71;70.22;99394.84;2384375;28;44770;-83
2022/11/22 08:29:37;;;;;;;;;2.00;1.00;;;;;9.72;70.07;99400.03;2378296;28;47121;-84
2022/11/22 08:30:47;;;;;;;;;2.00;1.00;;;;;9.73;70.16;99388.59;2381352;28;45441;-83
2022/11/22 08:31:57;;;;;;;;;1.00;1.00;;;;;9.74;70.06;99399.94;2376262;28;46205;-83
2022/11/22 08:33:07;;;;;;;;;3.25;1.00;;;;;9.74;69.87;99399.94;2378480;28;45273;-83
2022/11/22 08:34:18;;;;;;;;;2.25;1.25;;;;;9.74;70.04;99397.31;2380959;28;45356;-83
2022/11/22 08:35:28;;;;;;;;;3.25;1.00;;;;;9.76;70.32;99400.72;2373739;28;45229;-83
2022/11/22 08:36:38;;;;;;;;;1.50;0.00;;;;;9.78;70.11;99404.09;2377491;28;45330;-83
2022/11/22 08:37:49;;;;;;;;;3.00;1.00;;;;;9.78;70.14;99388.34;2383594;28;45241;-83
2022/11/22 08:38:59;;;;;;;;;2.25;0.50;;;;;9.80;70.11;99394.41;2375517;28;45452;-83
2022/11/22 08:40:10;;;;;;;;;2.00;0.50;;;;;9.80;70.27;99394.41;2384012;28;45234;-84
2022/11/22 08:41:21;;;;;;;;;0.25;0.25;;;;;9.83;70.18;99407.34;2382603;28;46275;-84
2022/11/22 08:42:31;;;;;;;;;1.00;1.00;;;;;9.83;70.32;99402.09;2383202;28;45239;-83
2022/11/22 08:43:42;;;;;;;;;2.50;1.00;;;;;9.85;69.96;99410.72;2382220;28;47003;-83
2022/11/22 08:44:52;;;;;;;;;1.00;1.00;;;;;9.87;70.03;99413.28;2380712;28;45544;-83
2022/11/22 08:46:03;;;;;;;;;2.00;2.00;;;;;9.87;70.12;99402.81;2383962;28;46379;-83
2022/11/22 08:47:13;;;;;;;;;2.00;0.50;;;;;9.89;70.27;99407.03;2383827;28;45892;-83
2022/11/22 08:48:25;;;;;;;;;1.00;1.00;;;;;9.89;69.95;99401.78;2379555;28;45540;-83
2022/11/22 08:49:35;;;;;;;;;1.75;0.75;;;;;9.91;70.14;99404.31;2377894;28;45274;-83
2022/11/22 08:50:51;;;;;;;;;1.00;0.00;;;;;9.91;69.92;99409.56;2381839;28;45512;-84
2022/11/22 08:52:01;;;;;;;;;3.00;1.00;;;;;9.92;69.91;99407.81;2382361;28;45233;-84
2022/11/22 08:53:12;;;;;;;;;1.00;0.00;;;;;9.90;70.26;99403.47;2382135;28;46502;-84
2022/11/22 08:54:22;;;;;;;;;1.00;1.00;;;;;9.93;69.96;99406.88;2382285;28;45315;-84
2022/11/22 08:55:32;;;;;;;;;2.75;1.00;;;;;9.93;70.21;99410.34;2382569;28;45535;-84
2022/11/22 08:56:42;;;;;;;;;5.00;1.00;;;;;9.95;70.27;99410.28;2374931;28;45390;-84
2022/11/22 08:57:57;;;;;;;;;2.25;1.75;;;;;9.96;70.54;99410.19;2379999;28;46454;-84
2022/11/22 08:59:08;;;;;;;;;1.75;1.25;;;;;9.99;70.33;99410.03;2379951;28;45484;-84
2022/11/22 09:00:18;;;;;;;;;1.25;0.50;;;;;10.02;70.32;99416.91;2376674;28;46181;-83
2022/11/22 09:01:28;;;;;;;;;5.00;1.00;;;;;10.03;70.21;99405.47;2383382;28;45243;-84
2022/11/22 09:02:40;;;;;;;;;1.50;0.75;;;;;10.06;70.33;99410.56;2383762;28;47492;-84
2022/11/22 09:03:50;;;;;;;;;0.25;0.00;;;;;10.06;70.11;99418.44;2381922;28;45451;-84
2022/11/22 09:05:00;;;;;;;;;3.75;1.25;;;;;10.09;69.87;99413.03;2380395;28;46127;-83
2022/11/22 09:06:14;;;;;;;;;2.00;2.00;;;;;10.10;69.72;99412.09;2379404;28;45423;-84
2022/11/22 09:07:24;;;;;;;;;2.00;1.00;;;;;10.13;69.71;99411.09;2378452;28;46622;-84
2022/11/22 09:08:36;;;;;;;;;3.00;2.00;;;;;10.13;70.11;99419.81;2383469;28;45479;-84
2022/11/22 09:09:46;;;;;;;;;2.00;2.00;;;;;10.17;69.65;99425.75;2383063;28;46414;-84
2022/11/22 09:11:06;;;;;;;;;4.00;2.00;;;;;10.20;69.83;99425.59;2378751;28;44740;-83
2022/11/22 09:12:16;;;;;;;;;3.00;1.00;;;;;10.22;70.03;99421.09;2391312;28;46015;-83
2022/11/22 09:13:28;;;;;;;;;1.00;1.00;;;;;10.24;70.13;99421.03;2376877;28;45394;-83
2022/11/22 09:14:39;;;;;;;;;3.50;1.50;;;;;10.30;69.72;99430.34;2380926;28;45349;-83
2022/11/22 09:15:49;;;;;;;;;2.00;1.00;;;;;10.33;69.20;99430.19;2382468;28;44680;-83
2022/11/22 09:16:59;;;;;;;;;2.00;1.00;;;;;10.34;69.54;99424.88;2382528;28;45590;-84
2022/11/22 09:18:10;;;;;;;;;7.00;2.00;;;;;10.34;69.56;99427.50;2384598;28;46519;-84
2022/11/22 09:19:20;;;;;;;;;6.75;2.00;;;;;10.37;69.43;99420.38;2377684;28;47781;-84
2022/11/22 09:20:30;;;;;;;;;7.00;1.00;;;;;10.37;69.12;99426.47;2375450;28;45421;-84
2022/11/22 09:21:41;;;;;;;;;5.00;2.00;;;;;10.38;69.19;99422.06;2383571;28;46296;-84
2022/11/22 09:22:51;;;;;;;;;5.50;1.00;;;;;10.38;68.84;99416.81;2382664;28;45386;-84
2022/11/22 09:24:01;;;;;;;;;2.75;1.75;;;;;10.41;69.32;99424.53;2377412;28;46297;-82
2022/11/22 09:25:12;;;;;;;;;1.00;1.00;;;;;10.44;69.24;99435.75;2383685;28;45231;-83
2022/11/22 09:26:24;;;;;;;;;2.00;1.00;;;;;10.47;69.38;99435.53;2384493;28;46886;-83
2022/11/22 09:27:34;;;;;;;;;3.75;2.00;;;;;10.49;68.93;99421.50;2381682;28;45961;-83
2022/11/22 09:28:45;;;;;;;;;1.00;1.00;;;;;10.52;68.92;99424.81;2384413;28;45426;-84
2022/11/22 09:29:55;;;;;;;;;3.00;1.50;;;;;10.55;69.20;99429.06;2379722;28;45397;-83
2022/11/22 09:31:08;;;;;;;;;1.00;1.00;;;;;10.58;69.19;99435.00;2378105;28;46076;-83
2022/11/22 09:32:19;;;;;;;;;3.00;1.25;;;;;10.60;68.65;99420.94;2385338;28;44788;-83
2022/11/22 09:33:30;;;;;;;;;2.75;1.00;;;;;10.63;68.90;99431.28;2385493;28;45758;-83
2022/11/22 09:34:40;;;;;;;;;2.50;1.00;;;;;10.64;68.78;99433.00;2386302;28;44713;-83
2022/11/22 09:35:51;;;;;;;;;1.00;1.00;;;;;10.66;68.40;99446.88;2392230;28;45459;-83
2022/11/22 09:37:01;;;;;;;;;0.75;0.75;;;;;10.68;68.34;99448.50;2380995;28;45523;-83
2022/11/22 09:38:11;;;;;;;;;2.25;1.00;;;;;10.71;68.25;99450.13;2383517;28;45309;-83
2022/11/22 09:39:21;;;;;;;;;3.00;0.50;;;;;10.73;68.46;99436.88;2383075;28;45446;-83
2022/11/22 09:40:32;;;;;;;;;2.75;1.00;;;;;10.77;67.99;99433.16;2388490;28;47923;-84
2022/11/22 09:42:10;;;;;;;;;1.50;1.00;;;;;10.80;68.23;99430.34;2391989;28;45325;-83
2022/11/22 09:43:40;;;;;;;;;3.75;1.00;;;;;10.78;68.06;99433.09;2387851;28;46629;-84
2022/11/22 09:45:20;;;;;;;;;4.75;1.00;;;;;10.83;67.64;99447.75;2386814;28;45509;-84
2022/11/22 09:46:31;;;;;;;;;2.00;1.50;;;;;10.87;67.90;99441.38;2391606;28;46447;-84
2022/11/22 09:47:44;;;;;;;;;1.00;1.00;;;;;10.89;67.82;99437.72;2385070;28;45432;-83
2022/11/22 09:49:11;;;;;;;;;2.25;1.00;;;;;10.91;67.02;99429.78;2386780;28;45438;-83
2022/11/22 09:50:58;;;;;;;;;4.25;1.00;;;;;10.91;66.61;99437.66;2377051;28;45362;-88
2022/11/22 09:52:24;;;;;;;;;4.00;1.50;;;;;10.88;66.97;99446.56;2378849;28;47126;-89
2022/11/22 09:53:52;;;;;;;;;2.25;1.00;;;;;10.85;67.27;99435.34;2384368;28;44799;-87
2022/11/22 09:55:09;;;;;;;;;2.00;1.00;;;;;10.84;67.02;99444.19;2384311;28;47140;-88
2022/11/22 09:56:24;;;;;;;;;2.75;2.00;;;;;10.84;67.00;99433.69;2386350;28;45519;-88
2022/11/22 09:58:05;;;;;;;;;6.25;1.00;;;;;10.85;67.33;99445.88;2383480;28;48300;-87
2022/11/22 09:59:38;;;;;;;;;5.75;2.50;;;;;10.83;66.59;99439.84;2380083;28;44803;-89
2022/11/22 10:00:48;;;;;;;;;5.00;1.00;;;;;10.83;67.08;99437.22;2390219;28;46599;-86
2022/11/22 10:02:16;;;;;;;;;1.00;1.00;;;;;10.84;67.29;99431.06;2378401;28;45334;-87
2022/11/22 10:03:41;;;;;;;;;0.50;0.50;;;;;10.84;67.15;99426.63;2384351;28;45456;-86
2022/11/22 10:04:56;;;;;;;;;2.50;1.50;;;;;10.85;67.36;99435.34;2384845;28;44701;-87
2022/11/22 10:06:14;;;;;;;;;2.00;1.50;;;;;10.87;67.82;99434.34;2390980;28;46243;-86
2022/11/22 10:07:36;;;;;;;;;3.50;1.50;;;;;10.90;67.10;99436.81;2383936;28;44764;-87
2022/11/22 10:09:06;;;;;;;;;0.25;0.00;;;;;10.93;67.00;99443.69;2385894;28;47010;-87
2022/11/22 10:10:26;;;;;;;;;2.50;1.25;;;;;10.94;67.26;99434.84;2382556;28;46231;-87
2022/11/22 10:11:42;;;;;;;;;3.50;1.00;;;;;10.98;66.96;99446.06;2376907;28;48472;-86
2022/11/22 10:13:05;;;;;;;;;3.00;1.50;;;;;10.99;67.27;99439.84;2386422;28;45409;-86
2022/11/22 10:14:52;;;;;;;;;2.75;1.75;;;;;11.03;67.17;99441.38;2386968;28;45449;-87
2022/11/22 10:16:15;;;;;;;;;1.75;1.25;;;;;11.03;67.11;99438.75;2380815;28;44718;-87
2022/11/22 10:17:46;;;;;;;;;3.00;1.00;;;;;11.06;67.11;99438.59;2388026;28;46411;-87
2022/11/22 10:19:12;;;;;;;;;3.00;2.00;;;;;11.06;66.74;99437.75;2389851;28;44924;-87
2022/11/22 10:20:26;;;;;;;;;1.00;1.00;;;;;11.08;66.60;99451.66;2389130;28;46168;-88
2022/11/22 10:21:36;;;;;;;;;1.00;0.00;;;;;11.09;66.79;99434.91;2390600;28;45981;-87
2022/11/22 10:22:47;;;;;;;;;2.00;2.00;;;;;11.11;66.77;99440.97;2383167;28;48263;-87
2022/11/22 10:23:58;;;;;;;;;7.50;1.50;;;;;11.11;66.36;99447.03;2386056;28;45502;-87
2022/11/22 10:25:18;;;;;;;;;5.00;3.25;;;;;11.11;66.20;99447.03;2391135;28;48514;-87
2022/11/22 10:26:31;;;;;;;;;4.00;2.50;;;;;11.12;66.65;99453.16;2384300;28;45453;-88
2022/11/22 10:27:43;;;;;;;;;2.50;2.25;;;;;11.11;66.63;99443.59;2380840;28;47793;-87
2022/11/22 10:28:59;;;;;;;;;1.75;1.00;;;;;11.15;66.79;99442.47;2374253;28;45414;-87
2022/11/22 10:30:18;;;;;;;;;1.75;1.75;;;;;11.17;66.89;99460.78;2375300;28;47202;-88
2022/11/22 10:31:42;;;;;;;;;2.00;1.00;;;;;11.20;66.67;99460.63;2374043;28;44708;-88
2022/11/22 10:32:55;;;;;;;;;1.25;1.00;;;;;11.22;66.33;99459.59;2372865;28;47346;-87
2022/11/22 10:34:15;;;;;;;;;1.25;1.25;;;;;11.23;66.13;99445.53;2381996;28;45330;-88
2022/11/22 10:35:54;;;;;;;;;5.00;1.00;;;;;11.26;65.91;99455.00;2381518;28;47550;-87
2022/11/22 10:37:20;;;;;;;;;5.25;1.75;;;;;11.28;66.23;99441.78;2386579;28;45367;-85
2022/11/22 10:38:49;;;;;;;;;6.25;1.25;;;;;11.30;65.96;99451.28;2380572;28;47420;-85
2022/11/22 10:40:17;;;;;;;;;4.00;1.75;;;;;11.32;66.18;99454.66;2378494;28;45283;-85
2022/11/22 10:41:38;;;;;;;;;1.00;1.00;;;;;11.35;66.44;99464.16;2378674;28;47271;-85
2022/11/22 10:43:25;;;;;;;;;1.25;1.25;;;;;11.34;64.92;99447.53;2376179;28;44754;-85
2022/11/22 10:45:05;;;;;;;;;4.50;1.75;;;;;11.34;64.11;99452.78;2376705;28;45480;-85
2022/11/22 10:46:26;;;;;;;;;0.75;0.75;;;;;11.34;65.22;99457.19;2376037;28;45807;-84
2022/11/22 10:47:41;;;;;;;;;4.00;1.00;;;;;11.31;64.68;99457.41;2387376;28;46029;-85
2022/11/22 10:49:16;;;;;;;;;4.00;1.50;;;;;11.31;65.08;99463.47;2383904;28;45463;-86
2022/11/22 10:51:08;;;;;;;;;4.75;1.00;;;;;11.30;65.21;99455.69;2384480;28;48096;-85
2022/11/22 10:52:33;;;;;;;;;2.50;1.75;;;;;11.30;65.25;99461.81;2364702;28;45470;-85
2022/11/22 10:53:59;;;;;;;;;1.00;1.00;;;;;11.29;65.20;99446.94;2378705;28;47359;-86
2022/11/22 10:55:46;;;;;;;;;1.00;1.00;;;;;11.33;65.29;99460.78;2374314;28;45307;-85
2022/11/22 10:57:17;;;;;;;;;1.25;1.00;;;;;11.33;64.28;99452.91;2379863;28;47375;-83
2022/11/22 10:58:39;;;;;;;;;2.25;1.00;;;;;11.34;64.63;99462.47;2370525;28;44716;-84
2022/11/22 11:00:15;;;;;;;;;1.50;1.50;;;;;11.34;64.20;99467.72;2379113;28;45346;-85
2022/11/22 11:01:44;;;;;;;;;2.00;1.00;;;;;11.34;64.63;99459.84;2390884;28;45567;-84
2022/11/22 11:03:09;;;;;;;;;2.00;1.00;;;;;11.34;64.52;99457.19;2393125;28;45414;-84
2022/11/22 11:04:22;;;;;;;;;1.00;1.00;;;;;11.36;65.12;99465.84;2384992;28;45675;-84
2022/11/22 11:05:44;;;;;;;;;0.00;0.00;;;;;11.36;63.91;99461.44;2392086;28;45501;-85
2022/11/22 11:06:57;;;;;;;;;3.00;1.00;;;;;11.38;65.25;99477.16;2387899;28;45372;-84
2022/11/22 11:08:14;;;;;;;;;4.25;2.00;;;;;11.39;65.20;99462.19;2375213;28;47632;-85
2022/11/22 11:09:48;;;;;;;;;3.50;0.50;;;;;11.41;64.80;99471.69;2382800;28;45507;-85
2022/11/22 11:11:00;;;;;;;;;3.75;1.75;;;;;11.43;64.74;99467.19;2360526;28;47060;-85
2022/11/22 11:12:37;;;;;;;;;2.50;1.50;;;;;11.44;64.72;99463.66;2370689;28;45313;-85
2022/11/22 11:14:22;;;;;;;;;3.75;1.50;;;;;11.48;65.27;99464.31;2366878;28;46384;-85
2022/11/22 11:15:43;;;;;;;;;1.50;1.50;;;;;11.52;65.12;99472.88;2384154;28;45549;-84
2022/11/22 11:16:53;;;;;;;;;0.25;0.25;;;;;11.48;64.66;99473.03;2389005;28;46793;-85
2022/11/22 11:18:13;;;;;;;;;1.25;1.00;;;;;11.50;64.42;99458.97;2383350;28;45359;-84
2022/11/22 11:19:27;;;;;;;;;1.00;1.00;;;;;11.48;64.18;99462.53;2378781;28;46592;-85
2022/11/22 11:20:40;;;;;;;;;6.00;2.00;;;;;11.48;64.18;99465.16;2392264;28;45278;-84
2022/11/22 11:22:18;;;;;;;;;3.50;1.50;;;;;11.51;63.46;99471.19;2392568;28;45456;-84
2022/11/22 11:23:28;;;;;;;;;2.50;0.75;;;;;11.50;62.95;99469.50;2382213;28;45429;-84
2022/11/22 11:24:39;;;;;;;;;2.25;2.00;;;;;11.48;63.03;99475.69;2385650;28;47282;-85
2022/11/22 11:25:51;;;;;;;;;2.00;1.00;;;;;11.49;64.48;99468.63;2385539;28;45521;-84
2022/11/22 11:27:01;;;;;;;;;1.00;1.00;;;;;11.50;63.88;99466.88;2380074;28;48127;-85
2022/11/22 11:28:28;;;;;;;;;1.25;1.25;;;;;11.51;64.26;99474.66;2378608;28;45394;-84
2022/11/22 11:29:45;;;;;;;;;1.50;0.00;;;;;11.52;63.33;99479.00;2388779;28;45408;-84
2022/11/22 11:31:00;;;;;;;;;1.50;1.00;;;;;11.52;63.37;99463.22;2385695;28;45695;-84
2022/11/22 11:32:16;;;;;;;;;2.00;1.00;;;;;11.53;63.52;99469.31;2384429;28;47343;-84
2022/11/22 11:33:32;;;;;;;;;1.00;0.50;;;;;11.53;62.84;99471.97;2385910;28;45242;-85
2022/11/22 11:34:51;;;;;;;;;2.50;1.00;;;;;11.54;63.87;99473.63;2380352;28;46369;-85
2022/11/22 11:36:04;;;;;;;;;1.00;1.00;;;;;11.55;63.84;99477.97;2377680;28;46997;-85
2022/11/22 11:37:23;;;;;;;;;4.00;3.75;;;;;11.55;64.00;99478.81;2383972;28;47685;-85
2022/11/22 11:38:40;;;;;;;;;2.00;0.25;;;;;11.55;63.85;99480.59;2390244;28;45496;-85
2022/11/22 11:39:51;;;;;;;;;1.00;1.00;;;;;11.56;63.67;99482.28;2385408;28;46378;-84
2022/11/22 11:41:19;;;;;;;;;5.00;2.00;;;;;11.55;64.15;99477.97;2389624;28;44873;-86
2022/11/22 11:42:33;;;;;;;;;5.00;2.00;;;;;11.56;63.97;99491.03;2384771;28;46358;-86
2022/11/22 11:43:45;;;;;;;;;1.25;1.25;;;;;11.57;64.17;99491.88;2377540;28;45505;-87
2022/11/22 11:45:18;;;;;;;;;4.25;1.75;;;;;11.55;63.31;99472.72;2386862;28;46229;-85
2022/11/22 11:46:44;;;;;;;;;3.00;0.75;;;;;11.57;64.45;99476.09;2380012;28;45359;-85
2022/11/22 11:47:54;;;;;;;;;1.00;0.00;;;;;11.58;63.14;99483.06;2386635;28;45607;-86
2022/11/22 11:49:15;;;;;;;;;2.50;0.75;;;;;11.58;63.41;99470.72;2397274;28;45441;-85
2022/11/22 11:50:27;;;;;;;;;1.50;1.50;;;;;11.58;63.14;99468.09;2390284;28;47367;-86
2022/11/22 11:51:41;;;;;;;;;3.00;1.25;;;;;11.59;63.52;99466.31;2390497;28;45405;-85
2022/11/22 11:53:02;;;;;;;;;1.75;1.00;;;;;11.62;63.40;99470.56;2391129;28;45440;-86
2022/11/22 11:54:22;;;;;;;;;2.00;0.50;;;;;11.63;63.46;99467.84;2388788;28;45464;-86
2022/11/22 11:55:34;;;;;;;;;1.25;1.25;;;;;11.64;63.80;99466.91;2387872;28;48238;-86
2022/11/22 11:56:50;;;;;;;;;1.50;1.50;;;;;11.66;63.33;99475.56;2384978;28;45978;-86
2022/11/22 11:58:03;;;;;;;;;1.75;1.75;;;;;11.66;63.23;99458.91;2384214;28;47420;-86
2022/11/22 11:59:18;;;;;;;;;2.00;1.75;;;;;11.69;63.29;99464.88;2380480;28;45271;-86
2022/11/22 12:00:37;;;;;;;;;1.00;1.00;;;;;11.68;63.03;99478.94;2376507;28;48028;-86
2022/11/22 12:02:03;;;;;;;;;1.50;1.00;;;;;11.67;61.72;99477.25;2386408;28;44807;-86
2022/11/22 12:03:18;;;;;;;;;3.00;0.25;;;;;11.68;62.18;99476.31;2385891;28;48113;-86
2022/11/22 12:04:33;;;;;;;;;3.00;2.00;;;;;11.69;63.09;99492.97;2382758;28;45333;-87
2022/11/22 12:05:43;;;;;;;;;0.50;0.50;;;;;11.69;62.41;99490.31;2379744;28;48141;-86
2022/11/22 12:07:02;;;;;;;;;1.25;0.00;;;;;11.70;62.17;99487.59;2368178;28;45370;-86
2022/11/22 12:08:28;;;;;;;;;3.75;1.00;;;;;11.72;62.18;99482.25;2384765;28;47465;-86
2022/11/22 12:09:44;;;;;;;;;4.25;0.25;;;;;11.71;62.42;99488.44;2389204;28;45636;-87
2022/11/22 12:11:07;;;;;;;;;2.25;1.00;;;;;11.76;62.04;99482.91;2383870;28;45638;-86
2022/11/22 12:12:44;;;;;;;;;2.25;1.00;;;;;11.77;62.14;99495.16;2386453;28;45283;-86
2022/11/22 12:14:02;;;;;;;;;1.00;1.00;;;;;11.77;62.82;99490.75;2385034;28;45481;-85
2022/11/22 12:15:36;;;;;;;;;1.00;0.75;;;;;11.81;62.96;99488.75;2380757;28;44823;-85
2022/11/22 12:16:51;;;;;;;;;6.00;4.00;;;;;11.80;61.49;99492.34;2379373;28;46347;-85
2022/11/22 12:18:01;;;;;;;;;1.00;1.00;;;;;11.81;62.82;99501.94;2386229;28;46076;-85
2022/11/22 12:19:49;;;;;;;;;3.25;0.50;;;;;11.82;62.73;99503.63;2383992;28;46232;-85
2022/11/22 12:21:16;;;;;;;;;4.00;1.00;;;;;11.84;61.89;99501.75;2384078;28;45390;-86
2022/11/22 12:22:36;;;;;;;;;2.00;1.00;;;;;11.83;60.43;99513.22;2374888;28;46467;-85
2022/11/22 12:23:46;;;;;;;;;1.25;1.00;;;;;11.84;61.92;99512.28;2384623;28;45358;-85
2022/11/22 12:25:02;;;;;;;;;1.25;0.00;;;;;11.85;61.95;99502.59;2388983;28;47212;-85
2022/11/22 12:26:13;;;;;;;;;2.00;0.50;;;;;11.86;61.93;99510.41;2383334;28;44732;-86
2022/11/22 12:27:24;;;;;;;;;2.50;0.50;;;;;11.89;61.64;99497.06;2386569;28;45823;-86
2022/11/22 12:28:36;;;;;;;;;2.50;1.50;;;;;11.93;62.50;99503.00;2379125;28;45424;-86
2022/11/22 12:29:47;;;;;;;;;2.75;0.50;;;;;11.97;61.73;99493.13;2385061;28;46494;-86
2022/11/22 12:31:16;;;;;;;;;1.25;0.50;;;;;11.99;61.18;99505.28;2380521;28;44812;-87
2022/11/22 12:32:34;;;;;;;;;3.00;0.00;;;;;12.03;62.14;99511.19;2386446;28;46205;-87
2022/11/22 12:33:53;;;;;;;;;1.25;0.75;;;;;12.05;61.38;99511.94;2384214;28;44862;-86
2022/11/22 12:35:19;;;;;;;;;2.00;0.50;;;;;12.08;61.13;99498.59;2387787;28;45444;-86
2022/11/22 12:36:43;;;;;;;;;0.75;0.25;;;;;12.12;60.34;99510.66;2385314;28;45575;-87
2022/11/22 12:38:00;;;;;;;;;1.50;0.50;;;;;12.13;60.83;99507.13;2392454;28;46545;-85
2022/11/22 12:39:16;;;;;;;;;0.50;0.50;;;;;12.15;61.30;99502.59;2390202;28;45523;-86
2022/11/22 12:40:36;;;;;;;;;0.50;0.50;;;;;12.15;61.32;99499.97;2376550;28;47578;-85
2022/11/22 12:41:51;;;;;;;;;1.50;0.50;;;;;12.17;61.19;99502.53;2368430;28;45371;-87
2022/11/22 12:43:26;;;;;;;;;0.75;0.75;;;;;12.19;60.92;99502.44;2380734;28;45512;-87
2022/11/22 12:44:41;;;;;;;;;2.00;0.00;;;;;12.20;60.15;99509.41;2383238;28;45322;-87
2022/11/22 12:45:59;;;;;;;;;0.50;0.50;;;;;12.23;61.13;99501.28;2383950;28;46973;-86
2022/11/22 12:47:15;;;;;;;;;0.50;0.50;;;;;12.26;61.41;99511.66;2383838;28;45821;-87
2022/11/22 12:48:51;;;;;;;;;0.50;0.50;;;;;12.32;61.71;99502.53;2390204;28;46670;-85
2022/11/22 12:50:09;;;;;;;;;2.25;0.50;;;;;12.36;61.43;99511.94;2385498;28;44663;-86
2022/11/22 12:51:31;;;;;;;;;4.50;0.75;;;;;12.34;58.15;99512.06;2382350;28;48563;-87
2022/11/22 12:52:51;;;;;;;;;1.50;0.00;;;;;12.35;60.05;99508.47;2376117;28;44863;-88
2022/11/22 12:54:07;;;;;;;;;1.00;0.50;;;;;12.34;60.36;99506.78;2384138;28;46598;-87
2022/11/22 12:55:26;;;;;;;;;2.50;0.50;;;;;12.37;60.95;99513.66;2373153;28;45350;-85
2022/11/22 12:56:46;;;;;;;;;3.00;1.25;;;;;12.36;60.87;99515.44;2376894;28;47951;-86
2022/11/22 12:58:15;;;;;;;;;0.25;0.25;;;;;12.40;60.47;99509.97;2381482;28;45571;-87
2022/11/22 12:59:43;;;;;;;;;4.50;1.25;;;;;12.42;59.36;99511.56;2373922;28;47292;-87
2022/11/22 13:01:07;;;;;;;;;4.00;0.00;;;;;12.43;60.72;99512.41;2372140;28;45340;-87
2022/11/22 13:02:40;;;;;;;;;2.50;0.00;;;;;12.46;60.56;99512.25;2381743;28;46304;-86
2022/11/22 13:04:00;;;;;;;;;0.50;0.50;;;;;12.47;60.24;99508.69;2384145;28;44783;-86
2022/11/22 13:05:16;;;;;;;;;2.50;0.50;;;;;12.50;60.81;99508.47;2376539;28;48366;-87
2022/11/22 13:06:36;;;;;;;;;0.75;0.75;;;;;12.51;60.72;99510.19;2375054;28;45304;-87
2022/11/22 13:08:15;;;;;;;;;3.00;1.00;;;;;12.57;60.61;99517.69;2383643;28;45458;-85
2022/11/22 13:09:32;;;;;;;;;2.75;0.50;;;;;12.59;59.71;99518.44;2375831;28;44803;-87
2022/11/22 13:10:45;;;;;;;;;3.00;2.00;;;;;12.61;60.25;99518.38;2377911;28;45554;-87
2022/11/22 13:12:12;;;;;;;;;0.50;0.50;;;;;12.62;59.84;99511.31;2383984;28;45368;-87
2022/11/22 13:13:35;;;;;;;;;1.00;0.75;;;;;12.64;59.05;99509.44;2383835;28;45421;-86
2022/11/22 13:14:53;;;;;;;;;2.75;0.75;;;;;12.66;58.72;99512.81;2383733;28;45374;-87
2022/11/22 13:16:09;;;;;;;;;0.00;0.00;;;;;12.65;59.42;99511.09;2382500;28;48472;-87
2022/11/22 13:17:23;;;;;;;;;1.75;0.00;;;;;12.65;59.84;99511.09;2383189;28;44844;-86
2022/11/22 13:18:38;;;;;;;;;1.75;1.75;;;;;12.66;60.07;99518.94;2386853;28;47079;-87
2022/11/22 13:19:54;;;;;;;;;2.50;0.75;;;;;12.66;59.90;99504.91;2380948;28;45556;-86
2022/11/22 13:21:19;;;;;;;;;0.25;0.00;;;;;12.67;59.94;99517.13;2384489;28;45655;-86
2022/11/22 13:22:51;;;;;;;;;0.75;0.75;;;;;12.66;57.87;99520.72;2384742;28;44751;-86
2022/11/22 13:24:10;;;;;;;;;1.00;0.25;;;;;12.58;56.74;99527.31;2382725;28;45293;-86
2022/11/22 13:25:36;;;;;;;;;3.50;1.25;;;;;12.60;59.06;99527.22;2390524;28;46369;-87
2022/11/22 13:27:16;;;;;;;;;1.00;1.00;;;;;12.59;58.44;99529.00;2381826;28;47389;-86
2022/11/22 13:28:31;;;;;;;;;4.00;0.50;;;;;12.58;58.73;99519.41;2374936;28;45426;-87